NOAA/GLERL Met Station at Muskegon, MI

Previous 5 days (top of hour only)
See slso Previous 3 Hours (2 minute increments)
Jump down to Data
Switch to [English][Metric]
Zoom: Click and drag, Pan: shift-click and drag, Unzoom: double-click, Unzoom All





Zoom: Click and drag, Pan: shift-click and drag, Unzoom: double-click, Unzoom All

Note: Speed = mean wind during 2-minute period at top of hour,
Gust = max wind during 2-minute period at top of hour,
Peak = max wind during entire hour.
• See also 5-day windrose plot

NOAA/GLERL Met Station at Muskegon, MI

Previous 5 days (top of hour only)
See slso Previous 3 Hours (2 minute increments)
Jump up to Graphs
Switch to [English][Metric]
                  Wind  Wind  Wind   Air   Dew   Rel     Sta   PAR
                   Spd   Gst   Dir  Temp    Pt   Hum    Pres uE/m2/
YYYY-MM-DD   EDT   kts   kts   deg     F     F     %   in Hg   sec
2016-07-28 00:00   0.8   1.0   344  74.7  72.6  93.1   29.33     2
2016-07-27 23:00   4.3   4.9   327  75.4  72.7  91.3   29.33     2
2016-07-27 22:00   1.9   2.1   298  75.2  72.1  89.9   29.32     2
2016-07-27 21:00   5.6   6.2   316  75.6  71.9  88.2   29.32    43
2016-07-27 20:00   1.9   2.1   245  77.2  71.5  82.4   29.32   962
2016-07-27 19:00   4.3   4.9   328  77.4  71.4  81.7   29.34   924
2016-07-27 18:00   7.2   9.3   343  77.9  70.0  76.2   29.34  1377
2016-07-27 17:00   4.7   6.6   359  78.8  68.8  71.1   29.34  1652
2016-07-27 16:00   8.2   8.9   302  77.5  71.6  81.6   29.36  2220
2016-07-27 15:00   6.0   6.6   260  76.6  71.4  83.7   29.37  2177
2016-07-27 14:00   5.1   5.6   242  76.1  70.6  82.9   29.39  2188
2016-07-27 13:00   5.8   6.4   270  75.9  70.9  84.1   29.39  2220
2016-07-27 12:00   5.8   6.2   262  75.4  70.8  85.3   29.39  2001
2016-07-27 11:00   5.8   6.8   261  75.6  70.7  84.7   29.38  1899
2016-07-27 10:00   6.2   7.0   291  75.2  70.4  84.8   29.39  1889
2016-07-27 09:00   9.7  10.5   265  75.0  70.9  86.9   29.38  1630
2016-07-27 08:00   7.4   8.2   234  73.9  72.0  93.4   29.39   559
2016-07-27 07:00   6.8   7.2   234  74.1  71.5  91.5   29.39   200
2016-07-27 06:00   4.9   5.6   256  74.3  71.1  89.7   29.37     2
2016-07-27 05:00   8.0   9.1   246  74.5  70.9  88.4   29.38     2
2016-07-27 04:00   7.6   8.7   247  74.7  69.3  83.0   29.37     2
2016-07-27 03:00   7.8   8.9   239  74.7  68.7  81.4   29.38     2
2016-07-27 02:00   7.0   7.4   220  74.3  69.4  84.5   29.38     2
2016-07-27 01:00   4.7   4.9   256  75.0  69.1  81.5   29.39     2
2016-07-27 00:00   6.4   6.6   256  74.8  69.2  82.2   29.39     2
2016-07-26 23:00   5.4   5.6   220  75.0  69.7  83.2   29.39     2
2016-07-26 22:00   5.6   6.6   201  73.8  68.8  84.1   29.37     2
2016-07-26 21:00   1.4   1.7   263  76.5  68.2  75.1   29.39   140
2016-07-26 20:00   1.4   1.7   296  77.9  68.6  72.6   29.39  1272
2016-07-26 19:00   3.1   3.9   313  77.9  69.0  73.7   29.39  1750
2016-07-26 18:00   7.8   8.6   280  77.4  69.3  75.8   29.41  1972
2016-07-26 17:00   7.8   8.7   283  77.4  69.0  75.0   29.41  2079
2016-07-26 16:00   8.4   8.9   279  76.5  69.7  79.4   29.42  2123
2016-07-26 15:00   8.7   9.7   279  76.3  69.5  79.1   29.43  2145
2016-07-26 14:00   4.9   5.6   282  75.9  69.0  78.7   29.43  2149
2016-07-26 13:00   4.9   5.4   262  75.4  69.3  81.0   29.44  2141
2016-07-26 12:00   4.1   4.9   281  74.8  69.1  82.1   29.45  2123
2016-07-26 11:00   5.1   5.6   327  74.8  69.2  82.3   29.45  2048
2016-07-26 10:00   3.9   4.3   316  73.8  69.5  86.3   29.45  1946
2016-07-26 09:00   3.7   4.1   308  73.2  68.9  86.0   29.44  1733
2016-07-26 08:00   5.6   5.8   328  73.2  69.5  87.8   29.44  1333
2016-07-26 07:00   4.1   4.5   295  72.7  69.5  89.5   29.44   151
2016-07-26 06:00   5.4   6.2   285  73.2  69.6  88.1   29.43     2
2016-07-26 05:00   5.6   6.0   302  73.4  69.6  87.7   29.41     2
2016-07-26 04:00   5.1   5.6   304  73.2  70.8  92.1   29.41     2
2016-07-26 03:00   4.1   5.1   272  73.2  71.5  94.3   29.41     2
2016-07-26 02:00   4.5   5.1   291  73.4  70.5  90.4   29.40     2
2016-07-26 01:00   3.5   4.1   253  73.4  69.6  87.6   29.41     2
2016-07-26 00:00   3.9   4.3   270  74.1  68.5  82.4   29.40     2
2016-07-25 23:00   3.1   3.3   279  74.3  67.5  79.1   29.39     2
2016-07-25 22:00   4.9   5.4   254  73.9  68.8  83.7   29.39     2
2016-07-25 21:00   5.4   6.2   281  74.8  68.2  79.5   29.38   135
2016-07-25 20:00   4.7   5.1   273  75.9  67.4  74.4   29.37  1234
2016-07-25 19:00   4.1   4.9   281  76.5  67.3  72.9   29.37  1734
2016-07-25 18:00   5.2   6.6   277  75.9  66.2  71.3   29.37  1968
2016-07-25 17:00   7.8   8.4   332  77.4  67.7  71.8   29.36  2079
2016-07-25 16:00   8.9  11.9   352  76.6  66.4  70.3   29.36  2121
2016-07-25 15:00  11.1  11.9   335  75.6  68.2  77.7   29.37  1810
2016-07-25 14:00  11.9  12.8   339  75.0  67.8  77.8   29.37  2144
2016-07-25 13:00  11.1  11.5   327  73.6  68.0  82.3   29.37  2126
2016-07-25 12:00   9.7  10.7   324  73.2  68.1  83.7   29.37  2097
2016-07-25 11:00  14.0  14.6   338  73.6  67.0  79.6   29.36  2044
2016-07-25 10:00  14.6  15.4   342  73.2  67.5  81.9   29.34  1941
2016-07-25 09:00   9.3  11.9   350  73.2  67.5  81.9   29.34  1732
2016-07-25 08:00  13.0  15.6   349  72.9  67.6  83.3   29.33  1293
2016-07-25 07:00  12.6  14.2   343  72.7  68.1  85.2   29.31   221
2016-07-25 06:00  10.1  11.3   333  73.4  69.3  86.7   29.29     2
2016-07-25 05:00  14.4  15.9   317  73.9  69.9  87.1   29.29     2
2016-07-25 04:00  12.6  13.6   301  74.1  70.6  88.6   29.29     2
2016-07-25 03:00   3.7   4.7   255  73.9  70.6  89.1   29.29     2
2016-07-25 02:00   3.1   3.1   283  74.3  72.5  94.0   29.28     2
2016-07-25 01:00   4.3   4.7   324  73.8  72.2  94.9   29.25     2
2016-07-25 00:00   7.0   7.4   318  74.3  72.5  94.1   29.24     2
2016-07-24 23:00  12.4  13.6   285  74.7  72.9  94.2   29.24     2
2016-07-24 22:00  17.5  18.7   239  76.8  74.2  91.5   29.22     2
2016-07-24 21:00  13.8  15.7   217  75.4  73.6  94.0   29.21    43
2016-07-24 20:00  13.2  14.2   199  76.5  73.3  89.7   29.20   691
2016-07-24 19:00  19.1  20.2   219  76.1  73.6  91.7   29.23   554
2016-07-24 18:00  17.9  19.8   202  77.4  74.4  90.5   29.23   295
2016-07-24 17:00  17.3  18.5   201  77.4  73.8  88.5   29.22   758
2016-07-24 16:00  18.1  19.8   200  79.5  73.6  81.9   29.23  2330
2016-07-24 15:00  21.6  23.9   189  80.2  72.9  77.9   29.24  1531
2016-07-24 14:00  12.1  13.2   194  76.6  72.5  86.9   29.28  1615
2016-07-24 13:00  13.0  14.8   182  75.6  71.5  86.9   29.29  1899
2016-07-24 12:00  14.8  16.3   189  72.7  69.7  90.3   29.31   517
2016-07-24 11:00  11.1  13.6   180  71.4  69.7  94.3   29.30   605
2016-07-24 10:00   9.5  11.7   186  70.9  68.5  92.2   29.30   198
2016-07-24 09:00   5.2   7.6   173  69.6  68.4  95.7   29.33    54
2016-07-24 08:00   8.2  10.7   159  69.1  68.4  97.7   29.32     6
2016-07-24 07:00  11.1  13.6    60  71.8  70.8  96.7   29.31     2
2016-07-24 06:00  10.7  12.1   204  72.3  71.0  95.5   29.31     2
2016-07-24 05:00  17.1  20.6   177  70.7  68.1  91.4   29.29     2
2016-07-24 04:00  12.8  14.4   222  72.3  69.1  89.5   29.32     2
2016-07-24 03:00  10.5  12.1   196  73.2  69.6  88.2   29.31     2
2016-07-24 02:00  14.6  16.3   203  72.3  69.8  91.8   29.32     2
2016-07-24 01:00  14.0  15.9   240  74.8  70.8  87.0   29.33     2
2016-07-24 00:00   4.1   5.1   243  76.6  73.4  89.5   29.32     2
2016-07-23 23:00   2.7   3.5   250  77.2  74.5  91.3   29.34     2
2016-07-23 22:00   3.3   4.1   184  77.2  74.0  89.6   29.32     2
2016-07-23 21:00   6.4   7.6   174  78.4  73.9  85.6   29.31    17
2016-07-23 20:00   3.3   4.7    80  79.2  73.2  81.7   29.31   220